Time;durP1;ratioP1;P1;durP2;ratioP2;P2;SDS_P1;SDS_P2;PMS_P1;PMS_P2;Temp;Humidity;BMP_temperature;BMP_pressure;BME280_temperature;BME280_humidity;BME280_pressure;Samples;Min_cycle;Max_cycle;Signal;HPM_P1;HPM_P2
2021/03/16 00:01:42;;;;;;;20.35;3.63;;;;;;;;;;5052083;28;20553;-64
2021/03/16 00:04:28;;;;;;;10.68;2.92;;;;;;;;;;5049916;28;20048;-64
2021/03/16 00:07:43;;;;;;;17.25;3.45;;;;;;;;;;5043254;28;20060;-64
2021/03/16 00:10:28;;;;;;;18.33;2.97;;;;;;;;;;5051937;28;20049;-64
2021/03/16 00:13:14;;;;;;;12.90;3.70;;;;;;;;;;5051900;28;20049;-64
2021/03/16 00:15:59;;;;;;;14.35;3.10;;;;;;;;;;5049437;28;20049;-64
2021/03/16 00:18:44;;;;;;;23.70;4.05;;;;;;;;;;5051802;28;20087;-64
2021/03/16 00:21:30;;;;;;;24.45;4.00;;;;;;;;;;5051857;28;20044;-64
2021/03/16 00:24:15;;;;;;;23.73;4.50;;;;;;;;;;5052666;28;20048;-64
2021/03/16 00:27:00;;;;;;;21.40;5.05;;;;;;;;;;5055431;28;20519;-64
2021/03/16 00:29:46;;;;;;;21.67;4.45;;;;;;;;;;5055796;28;20053;-64
2021/03/16 00:32:31;;;;;;;18.00;4.18;;;;;;;;;;5055895;28;20047;-64
2021/03/16 00:35:17;;;;;;;21.80;5.00;;;;;;;;;;5054729;28;20097;-64
2021/03/16 00:38:02;;;;;;;27.70;4.72;;;;;;;;;;5055733;28;20059;-64
2021/03/16 00:40:49;;;;;;;16.50;3.45;;;;;;;;;;5055588;28;20094;-64
2021/03/16 00:43:34;;;;;;;24.35;3.78;;;;;;;;;;5055750;28;20056;-64
2021/03/16 00:46:20;;;;;;;22.65;4.55;;;;;;;;;;5053807;28;20103;-64
2021/03/16 00:49:06;;;;;;;23.98;3.13;;;;;;;;;;5055385;28;20537;-64
2021/03/16 00:51:52;;;;;;;18.17;4.85;;;;;;;;;;5055460;28;20045;-64
2021/03/16 00:54:38;;;;;;;23.92;4.25;;;;;;;;;;5039998;28;20403;-64
2021/03/16 00:57:24;;;;;;;21.80;3.65;;;;;;;;;;5039325;28;20407;-64
2021/03/16 01:00:09;;;;;;;21.42;3.17;;;;;;;;;;5055215;28;20052;-64
2021/03/16 01:02:55;;;;;;;23.90;3.13;;;;;;;;;;5055484;28;20107;-64
2021/03/16 01:05:40;;;;;;;11.00;2.67;;;;;;;;;;5054938;28;20049;-64
2021/03/16 01:08:25;;;;;;;21.55;3.63;;;;;;;;;;5054771;28;20495;-64
2021/03/16 01:11:13;;;;;;;13.23;2.80;;;;;;;;;;5055161;28;20443;-64
2021/03/16 01:13:58;;;;;;;19.73;3.75;;;;;;;;;;5055136;28;20124;-64
2021/03/16 01:16:45;;;;;;;15.15;2.80;;;;;;;;;;5054318;28;20487;-64
2021/03/16 01:19:30;;;;;;;16.02;2.75;;;;;;;;;;5054914;28;20103;-64
2021/03/16 01:22:16;;;;;;;16.70;4.13;;;;;;;;;;5054857;28;20060;-64
2021/03/16 01:25:01;;;;;;;14.68;3.47;;;;;;;;;;5054988;28;20047;-64
2021/03/16 01:27:47;;;;;;;20.00;3.97;;;;;;;;;;5053772;28;20522;-64
2021/03/16 01:30:32;;;;;;;20.75;3.35;;;;;;;;;;5054750;28;20487;-64
2021/03/16 01:33:18;;;;;;;21.27;3.67;;;;;;;;;;5054779;28;20051;-64
2021/03/16 01:36:03;;;;;;;20.50;3.97;;;;;;;;;;5053608;28;20051;-64
2021/03/16 01:38:48;;;;;;;22.30;4.45;;;;;;;;;;5052455;28;20041;-64
2021/03/16 01:41:33;;;;;;;13.15;3.28;;;;;;;;;;5054781;28;20073;-64
2021/03/16 01:44:19;;;;;;;21.40;3.70;;;;;;;;;;5054447;28;20041;-64
2021/03/16 01:47:04;;;;;;;16.00;3.00;;;;;;;;;;5054442;28;20053;-64
2021/03/16 01:49:49;;;;;;;16.10;2.80;;;;;;;;;;5054331;28;20486;-64
2021/03/16 01:52:35;;;;;;;22.85;4.43;;;;;;;;;;5054503;28;20060;-64
2021/03/16 01:55:21;;;;;;;18.60;3.65;;;;;;;;;;5054038;28;20132;-64
2021/03/16 01:58:10;;;;;;;19.65;4.07;;;;;;;;;;5053134;28;20044;-64
2021/03/16 02:01:14;;;;;;;19.60;4.43;;;;;;;;;;5054302;28;20423;-66
2021/03/16 02:04:19;;;;;;;18.75;2.47;;;;;;;;;;5054111;28;20045;-65
2021/03/16 02:07:37;;;;;;;24.63;3.90;;;;;;;;;;5054142;28;20144;-65
2021/03/16 02:10:49;;;;;;;23.02;3.33;;;;;;;;;;5054096;28;20037;-66
2021/03/16 02:13:55;;;;;;;23.05;3.75;;;;;;;;;;5053211;28;20049;-65
2021/03/16 02:17:02;;;;;;;15.70;2.72;;;;;;;;;;5052962;28;20052;-65
2021/03/16 02:20:21;;;;;;;23.58;4.45;;;;;;;;;;5052645;28;20045;-66
2021/03/16 02:23:46;;;;;;;21.05;3.33;;;;;;;;;;5053993;28;20090;-66
2021/03/16 02:26:52;;;;;;;22.98;3.17;;;;;;;;;;5043738;28;20060;-65
2021/03/16 02:29:58;;;;;;;20.98;3.60;;;;;;;;;;5051899;28;20049;-66
2021/03/16 02:33:03;;;;;;;20.13;3.28;;;;;;;;;;5051883;28;20041;-66
2021/03/16 02:36:07;;;;;;;26.33;4.88;;;;;;;;;;5052446;28;20115;-65
2021/03/16 02:39:12;;;;;;;21.35;3.60;;;;;;;;;;5051569;28;20052;-65
2021/03/16 02:42:16;;;;;;;19.95;3.75;;;;;;;;;;5050829;28;20526;-66
2021/03/16 02:45:20;;;;;;;20.90;4.50;;;;;;;;;;5052437;28;20122;-65
2021/03/16 02:48:24;;;;;;;27.45;3.20;;;;;;;;;;5040858;28;20040;-65
2021/03/16 02:51:28;;;;;;;24.80;3.38;;;;;;;;;;5052245;28;20041;-66
2021/03/16 02:54:33;;;;;;;17.90;3.50;;;;;;;;;;5052262;28;20041;-66
2021/03/16 02:57:37;;;;;;;23.67;4.20;;;;;;;;;;5052263;28;20381;-66
2021/03/16 03:00:42;;;;;;;24.85;3.47;;;;;;;;;;5052289;28;20040;-66
2021/03/16 03:03:46;;;;;;;19.80;4.18;;;;;;;;;;5052256;28;20045;-65
2021/03/16 03:06:51;;;;;;;17.40;2.90;;;;;;;;;;5052170;28;20052;-66
2021/03/16 03:09:55;;;;;;;23.30;3.53;;;;;;;;;;5052238;28;20056;-66
2021/03/16 03:12:59;;;;;;;16.77;3.03;;;;;;;;;;5051944;28;20498;-65
2021/03/16 03:16:03;;;;;;;19.13;3.75;;;;;;;;;;5051451;28;20068;-66
2021/03/16 03:19:08;;;;;;;20.10;3.40;;;;;;;;;;5052338;28;20044;-66
2021/03/16 03:22:16;;;;;;;29.20;4.22;;;;;;;;;;5051561;28;20048;-65
2021/03/16 03:25:49;;;;;;;30.52;4.95;;;;;;;;;;5052313;28;20053;-66
2021/03/16 03:28:53;;;;;;;14.93;3.17;;;;;;;;;;5052489;28;20120;-66
2021/03/16 03:31:57;;;;;;;19.30;4.50;;;;;;;;;;5050645;28;20566;-66
2021/03/16 03:35:02;;;;;;;19.15;3.58;;;;;;;;;;5051433;28;20037;-66
2021/03/16 03:38:06;;;;;;;19.27;3.42;;;;;;;;;;5051696;28;20052;-66
2021/03/16 03:41:10;;;;;;;22.40;4.78;;;;;;;;;;5052223;28;20041;-66
2021/03/16 03:44:14;;;;;;;23.48;3.72;;;;;;;;;;5031258;28;20056;-66
2021/03/16 03:47:18;;;;;;;21.27;3.15;;;;;;;;;;5032412;28;20060;-65
2021/03/16 03:50:22;;;;;;;18.75;3.53;;;;;;;;;;5031991;28;20045;-65
2021/03/16 03:53:27;;;;;;;20.27;4.03;;;;;;;;;;5046964;28;20052;-65
2021/03/16 03:56:32;;;;;;;18.70;3.00;;;;;;;;;;5051735;28;20045;-65
2021/03/16 03:59:36;;;;;;;20.27;2.72;;;;;;;;;;5050669;28;20045;-66
2021/03/16 04:02:41;;;;;;;19.48;3.20;;;;;;;;;;5050440;28;20069;-66
2021/03/16 04:05:48;;;;;;;16.73;4.65;;;;;;;;;;5051855;28;20045;-65
2021/03/16 04:08:52;;;;;;;19.58;2.80;;;;;;;;;;5051101;28;20053;-66
2021/03/16 04:11:56;;;;;;;23.48;3.00;;;;;;;;;;5051840;28;20545;-66
2021/03/16 04:15:00;;;;;;;16.30;3.40;;;;;;;;;;5030930;28;20049;-66
2021/03/16 04:18:05;;;;;;;15.55;3.75;;;;;;;;;;5019967;28;20089;-66
2021/03/16 04:21:09;;;;;;;26.40;3.17;;;;;;;;;;5019778;28;20056;-66
2021/03/16 04:24:13;;;;;;;19.42;3.40;;;;;;;;;;5044284;28;20045;-65
2021/03/16 04:27:18;;;;;;;25.35;3.90;;;;;;;;;;5051829;28;20045;-65
2021/03/16 04:30:22;;;;;;;20.38;2.72;;;;;;;;;;5051639;28;20448;-66
2021/03/16 04:33:26;;;;;;;17.85;3.35;;;;;;;;;;5050781;28;20045;-66
2021/03/16 04:36:32;;;;;;;16.77;2.80;;;;;;;;;;5051361;28;20048;-65
2021/03/16 04:39:36;;;;;;;19.60;3.42;;;;;;;;;;5051579;28;20179;-65
2021/03/16 04:42:40;;;;;;;16.30;3.03;;;;;;;;;;5051579;28;20513;-65
2021/03/16 04:45:45;;;;;;;21.83;3.10;;;;;;;;;;5051265;28;20507;-66
2021/03/16 04:48:49;;;;;;;16.83;2.80;;;;;;;;;;5051348;28;20052;-66
2021/03/16 04:51:53;;;;;;;18.50;2.70;;;;;;;;;;5039257;28;20037;-66
2021/03/16 04:54:57;;;;;;;21.27;2.88;;;;;;;;;;5050373;28;20045;-66
2021/03/16 04:58:02;;;;;;;19.35;3.20;;;;;;;;;;5051583;28;20041;-66
2021/03/16 05:01:06;;;;;;;21.20;2.72;;;;;;;;;;5051362;28;20483;-66
2021/03/16 05:04:10;;;;;;;19.45;2.92;;;;;;;;;;5050193;28;20439;-66
2021/03/16 05:07:14;;;;;;;17.75;3.65;;;;;;;;;;5051614;28;20492;-66
2021/03/16 05:10:19;;;;;;;16.17;3.38;;;;;;;;;;5051902;28;20095;-65
2021/03/16 05:13:23;;;;;;;22.38;3.10;;;;;;;;;;5054300;28;20086;-66
2021/03/16 05:16:31;;;;;;;19.60;3.78;;;;;;;;;;5054738;28;20044;-65
2021/03/16 05:19:35;;;;;;;18.77;3.10;;;;;;;;;;5054908;28;20055;-65
2021/03/16 05:22:39;;;;;;;13.50;3.10;;;;;;;;;;5055103;28;20086;-66
2021/03/16 05:25:43;;;;;;;17.27;2.78;;;;;;;;;;5034696;28;20041;-65
2021/03/16 05:28:48;;;;;;;24.13;4.70;;;;;;;;;;5035120;28;20083;-66
2021/03/16 05:31:52;;;;;;;18.83;2.53;;;;;;;;;;5034850;28;20099;-66
2021/03/16 05:34:57;;;;;;;26.88;4.63;;;;;;;;;;5049323;28;20629;-66
2021/03/16 05:38:01;;;;;;;19.45;3.25;;;;;;;;;;5054486;28;20170;-66
2021/03/16 05:41:05;;;;;;;17.92;3.72;;;;;;;;;;5054583;28;20129;-66
2021/03/16 05:44:09;;;;;;;20.75;3.30;;;;;;;;;;5075299;23;20048;-62
2021/03/16 05:47:14;;;;;;;20.80;3.35;;;;;;;;;;5073554;28;20049;-63
2021/03/16 05:50:18;;;;;;;26.75;4.25;;;;;;;;;;5073677;28;20494;-61
2021/03/16 05:53:22;;;;;;;29.80;5.68;;;;;;;;;;5074323;28;20055;-61
2021/03/16 05:56:26;;;;;;;22.27;3.80;;;;;;;;;;5074074;28;20417;-61
2021/03/16 05:59:31;;;;;;;15.20;2.47;;;;;;;;;;5074116;28;20053;-61
2021/03/16 06:02:38;;;;;;;18.17;3.95;;;;;;;;;;5084114;28;20041;-61
2021/03/16 06:05:42;;;;;;;23.67;2.85;;;;;;;;;;5073838;28;20048;-61
2021/03/16 06:08:46;;;;;;;24.40;3.67;;;;;;;;;;5084870;28;20041;-61
2021/03/16 06:11:51;;;;;;;20.65;3.97;;;;;;;;;;5072948;28;20048;-61
2021/03/16 06:14:55;;;;;;;14.57;2.92;;;;;;;;;;5067577;28;20426;-61
2021/03/16 06:17:59;;;;;;;18.25;4.40;;;;;;;;;;5064582;28;20123;-64
2021/03/16 06:21:04;;;;;;;24.48;5.60;;;;;;;;;;5082419;28;20383;-64
2021/03/16 06:24:14;;;;;;;21.88;3.33;;;;;;;;;;5073019;28;20045;-66
2021/03/16 06:27:24;;;;;;;17.45;2.75;;;;;;;;;;5084490;28;20494;-65
2021/03/16 06:30:28;;;;;;;22.45;3.70;;;;;;;;;;5072521;28;20492;-64
2021/03/16 06:33:33;;;;;;;17.10;3.72;;;;;;;;;;5073164;28;20053;-64
2021/03/16 06:36:37;;;;;;;17.15;3.38;;;;;;;;;;5073379;28;20044;-64
2021/03/16 06:39:45;;;;;;;17.73;3.17;;;;;;;;;;5072961;28;20502;-64
2021/03/16 06:42:49;;;;;;;17.88;3.28;;;;;;;;;;5071650;28;20499;-65
2021/03/16 06:45:53;;;;;;;20.75;3.05;;;;;;;;;;5071360;28;20036;-64
2021/03/16 06:48:58;;;;;;;22.30;2.92;;;;;;;;;;5073188;28;20048;-64
2021/03/16 06:52:10;;;;;;;15.40;2.80;;;;;;;;;;5083086;28;20048;-64
2021/03/16 06:55:14;;;;;;;18.70;3.42;;;;;;;;;;5072838;28;20052;-64
2021/03/16 06:58:22;;;;;;;16.40;3.30;;;;;;;;;;5072890;28;20530;-66
2021/03/16 07:01:30;;;;;;;16.40;4.10;;;;;;;;;;5071841;28;20510;-64
2021/03/16 07:04:35;;;;;;;17.35;2.90;;;;;;;;;;5051077;28;20099;-65
2021/03/16 07:07:39;;;;;;;21.15;3.00;;;;;;;;;;5050691;28;20075;-64
2021/03/16 07:10:43;;;;;;;17.10;2.67;;;;;;;;;;5052531;28;20688;-64
2021/03/16 07:13:48;;;;;;;13.85;2.28;;;;;;;;;;5083617;28;20082;-64
2021/03/16 07:16:52;;;;;;;22.30;2.70;;;;;;;;;;5072574;28;20041;-64
2021/03/16 07:20:06;;;;;;;21.70;2.63;;;;;;;;;;5071808;28;20097;-64
2021/03/16 07:23:10;;;;;;;17.60;3.13;;;;;;;;;;5072572;28;20498;-64
2021/03/16 07:26:14;;;;;;;9.73;2.58;;;;;;;;;;5083300;28;20097;-64
2021/03/16 07:29:21;;;;;;;14.63;2.65;;;;;;;;;;5068522;28;20100;-64
2021/03/16 07:32:25;;;;;;;21.17;2.85;;;;;;;;;;5072016;28;20530;-64
2021/03/16 07:35:29;;;;;;;12.90;2.45;;;;;;;;;;5071766;28;20101;-64
2021/03/16 07:38:33;;;;;;;17.67;3.15;;;;;;;;;;5082975;28;20040;-64
2021/03/16 07:41:37;;;;;;;18.35;4.20;;;;;;;;;;5071161;28;20076;-64
2021/03/16 07:44:42;;;;;;;16.20;3.25;;;;;;;;;;5071793;28;20093;-64
2021/03/16 07:47:46;;;;;;;14.73;2.50;;;;;;;;;;5072153;28;20085;-64
2021/03/16 07:50:50;;;;;;;12.80;2.80;;;;;;;;;;5081920;28;20083;-64
2021/03/16 07:53:55;;;;;;;17.48;3.10;;;;;;;;;;5073451;28;20455;-66
2021/03/16 07:57:00;;;;;;;19.45;4.20;;;;;;;;;;5074969;28;20059;-66
2021/03/16 08:00:07;;;;;;;15.48;2.78;;;;;;;;;;5075330;28;20044;-66
2021/03/16 08:03:11;;;;;;;17.98;2.22;;;;;;;;;;5056595;28;20048;-66
2021/03/16 08:06:22;;;;;;;20.20;3.15;;;;;;;;;;5056201;28;20045;-65
2021/03/16 08:09:26;;;;;;;10.07;2.05;;;;;;;;;;5056161;28;20487;-65
2021/03/16 08:12:31;;;;;;;15.88;2.90;;;;;;;;;;5073136;28;20043;-65
2021/03/16 08:15:43;;;;;;;15.20;2.35;;;;;;;;;;5072742;28;20040;-64
2021/03/16 08:18:47;;;;;;;9.20;2.20;;;;;;;;;;5076151;28;20079;-65
2021/03/16 08:21:58;;;;;;;10.00;2.47;;;;;;;;;;5073519;28;20048;-66
2021/03/16 08:25:03;;;;;;;10.07;2.30;;;;;;;;;;5074167;28;20044;-66
2021/03/16 08:28:07;;;;;;;15.10;2.17;;;;;;;;;;5073159;28;20048;-66
2021/03/16 08:31:11;;;;;;;13.23;1.98;;;;;;;;;;5072196;28;20068;-65
2021/03/16 08:34:16;;;;;;;12.00;2.85;;;;;;;;;;5077574;28;20060;-65
2021/03/16 08:37:27;;;;;;;13.70;3.15;;;;;;;;;;5090184;28;20049;-66
2021/03/16 08:40:31;;;;;;;10.95;1.80;;;;;;;;;;5078349;28;20495;-66
2021/03/16 08:43:35;;;;;;;8.02;2.08;;;;;;;;;;5078434;28;20045;-66
2021/03/16 08:46:40;;;;;;;7.88;1.38;;;;;;;;;;5085015;28;20041;-66
2021/03/16 08:49:45;;;;;;;6.93;1.65;;;;;;;;;;5085620;28;20045;-66
2021/03/16 08:52:49;;;;;;;7.78;1.80;;;;;;;;;;5081497;28;20041;-66
2021/03/16 08:55:54;;;;;;;6.07;1.50;;;;;;;;;;5091301;28;20119;-66
2021/03/16 08:58:58;;;;;;;12.20;2.28;;;;;;;;;;5079716;28;20048;-66
2021/03/16 09:02:02;;;;;;;10.20;1.80;;;;;;;;;;5090577;28;20044;-66
2021/03/16 09:05:07;;;;;;;7.78;1.45;;;;;;;;;;5084598;28;20095;-66
2021/03/16 09:08:12;;;;;;;6.97;1.45;;;;;;;;;;5097635;28;20037;-65
2021/03/16 09:11:28;;;;;;;5.88;1.35;;;;;;;;;;5087234;28;20048;-65
2021/03/16 09:14:33;;;;;;;7.82;1.42;;;;;;;;;;5084537;28;20159;-66
2021/03/16 09:17:41;;;;;;;7.35;1.10;;;;;;;;;;5084248;28;20040;-63
2021/03/16 09:20:46;;;;;;;11.23;2.35;;;;;;;;;;5085476;28;20083;-64
2021/03/16 09:23:50;;;;;;;10.45;1.83;;;;;;;;;;5085617;28;20071;-63
2021/03/16 09:27:05;;;;;;;12.40;1.83;;;;;;;;;;5097798;28;20045;-63
2021/03/16 09:30:10;;;;;;;6.40;1.25;;;;;;;;;;5085569;28;20036;-62
2021/03/16 09:33:18;;;;;;;12.30;1.70;;;;;;;;;;5091225;28;20048;-64
2021/03/16 09:36:29;;;;;;;11.98;1.73;;;;;;;;;;5075065;28;20048;-62
2021/03/16 09:39:53;;;;;;;12.25;1.83;;;;;;;;;;5080257;28;20040;-64
2021/03/16 09:42:47;;;;;;;9.15;1.25;;;;;;;;;;5095435;28;20041;-65
2021/03/16 09:45:33;;;;;;;8.63;1.42;;;;;;;;;;5074923;28;20044;-64
2021/03/16 09:48:19;;;;;;;6.53;1.85;;;;;;;;;;5077317;28;20100;-63
2021/03/16 09:51:14;;;;;;;6.45;1.33;;;;;;;;;;5079492;28;20125;-64
2021/03/16 09:53:59;;;;;;;9.02;1.83;;;;;;;;;;5078539;28;20045;-64
2021/03/16 09:56:44;;;;;;;12.65;1.75;;;;;;;;;;5082767;28;20047;-64
2021/03/16 09:59:33;;;;;;;8.98;1.73;;;;;;;;;;5092034;28;20050;-64
2021/03/16 10:02:18;;;;;;;12.35;2.28;;;;;;;;;;5084429;28;20041;-64
2021/03/16 10:05:04;;;;;;;6.78;1.77;;;;;;;;;;5077791;28;20047;-64
2021/03/16 10:07:50;;;;;;;6.10;1.60;;;;;;;;;;5074318;28;20041;-63
2021/03/16 10:10:39;;;;;;;9.20;1.27;;;;;;;;;;5074570;28;20041;-64
2021/03/16 10:13:37;;;;;;;6.70;2.28;;;;;;;;;;5076190;28;20045;-64
2021/03/16 10:16:23;;;;;;;8.52;1.55;;;;;;;;;;5081871;28;20040;-64
2021/03/16 10:19:08;;;;;;;6.32;1.20;;;;;;;;;;5081850;28;20085;-64
2021/03/16 10:21:54;;;;;;;7.60;1.70;;;;;;;;;;5084326;28;20402;-64
2021/03/16 10:24:39;;;;;;;11.07;1.83;;;;;;;;;;5079022;28;20033;-63
2021/03/16 10:27:27;;;;;;;5.15;1.00;;;;;;;;;;5075466;28;20115;-64
2021/03/16 10:30:12;;;;;;;8.27;1.63;;;;;;;;;;5075515;28;20036;-64
2021/03/16 10:32:57;;;;;;;5.18;0.90;;;;;;;;;;5076844;28;20036;-63
2021/03/16 10:35:43;;;;;;;6.07;1.73;;;;;;;;;;5068526;28;20043;-64
2021/03/16 10:38:28;;;;;;;9.65;1.30;;;;;;;;;;5079551;28;20045;-64
2021/03/16 10:41:14;;;;;;;6.35;0.93;;;;;;;;;;5058570;28;20052;-63
2021/03/16 10:43:59;;;;;;;5.20;1.00;;;;;;;;;;5062158;28;20037;-63
2021/03/16 10:46:44;;;;;;;10.63;1.95;;;;;;;;;;5068354;28;20041;-63
2021/03/16 10:49:30;;;;;;;8.80;1.10;;;;;;;;;;5064973;28;20128;-63
2021/03/16 10:52:15;;;;;;;7.00;1.95;;;;;;;;;;5053416;28;20056;-63
2021/03/16 10:55:01;;;;;;;6.22;1.40;;;;;;;;;;5054777;28;20055;-63
2021/03/16 10:57:47;;;;;;;6.10;1.63;;;;;;;;;;5056129;28;20467;-63
2021/03/16 11:00:32;;;;;;;6.55;1.45;;;;;;;;;;5054294;28;20384;-64
2021/03/16 11:03:18;;;;;;;5.95;1.05;;;;;;;;;;5052911;28;20132;-64
2021/03/16 11:06:03;;;;;;;9.75;1.25;;;;;;;;;;5056470;28;20115;-63
2021/03/16 11:08:49;;;;;;;7.82;1.98;;;;;;;;;;5073226;28;20048;-63
2021/03/16 11:11:34;;;;;;;4.68;1.10;;;;;;;;;;5072837;28;20054;-64
2021/03/16 11:14:19;;;;;;;8.00;1.15;;;;;;;;;;5066506;28;20049;-66
2021/03/16 11:17:05;;;;;;;6.30;1.75;;;;;;;;;;5069017;28;20044;-63
2021/03/16 11:19:51;;;;;;;10.30;1.30;;;;;;;;;;5069904;28;20090;-63
2021/03/16 11:22:37;;;;;;;8.57;1.98;;;;;;;;;;5068336;28;20048;-63
2021/03/16 11:25:22;;;;;;;6.55;1.30;;;;;;;;;;5062109;28;20049;-63
2021/03/16 11:28:07;;;;;;;3.97;0.95;;;;;;;;;;5065663;28;20083;-63
2021/03/16 11:30:53;;;;;;;9.63;1.20;;;;;;;;;;5061887;28;20151;-63
2021/03/16 11:33:38;;;;;;;9.43;1.17;;;;;;;;;;5065487;28;20127;-63
2021/03/16 11:36:42;;;;;;;9.32;1.48;;;;;;;;;;5067878;28;20131;-63
2021/03/16 11:39:46;;;;;;;6.88;1.98;;;;;;;;;;5072205;28;20457;-63
2021/03/16 11:42:51;;;;;;;8.05;1.25;;;;;;;;;;5072370;28;20075;-63
2021/03/16 11:45:55;;;;;;;5.30;0.82;;;;;;;;;;5077776;28;20491;-63
2021/03/16 11:48:59;;;;;;;7.95;1.48;;;;;;;;;;5075733;28;20041;-64
2021/03/16 11:52:04;;;;;;;3.40;1.00;;;;;;;;;;5060366;28;20053;-64
2021/03/16 11:55:08;;;;;;;5.97;1.33;;;;;;;;;;5079262;28;20044;-64
2021/03/16 11:58:13;;;;;;;6.80;1.10;;;;;;;;;;5060013;28;20041;-64
2021/03/16 12:01:17;;;;;;;7.25;1.48;;;;;;;;;;5060065;28;20111;-64
2021/03/16 12:04:21;;;;;;;7.78;1.17;;;;;;;;;;5061744;28;20068;-64
2021/03/16 12:07:26;;;;;;;7.38;2.13;;;;;;;;;;5074388;28;20044;-64
2021/03/16 12:10:30;;;;;;;9.85;2.30;;;;;;;;;;5078087;28;20056;-64
2021/03/16 12:13:35;;;;;;;6.15;1.30;;;;;;;;;;5081440;28;20036;-64
2021/03/16 12:16:39;;;;;;;7.78;1.02;;;;;;;;;;5081104;28;20032;-64
2021/03/16 12:19:43;;;;;;;8.48;1.73;;;;;;;;;;5080621;28;20048;-62
2021/03/16 12:22:48;;;;;;;6.00;0.80;;;;;;;;;;5081991;28;20090;-65
2021/03/16 12:25:54;;;;;;;6.85;1.25;;;;;;;;;;5082594;28;20045;-64
2021/03/16 12:28:57;;;;;;;8.18;1.38;;;;;;;;;;5081359;28;20123;-65
2021/03/16 12:32:02;;;;;;;4.95;1.45;;;;;;;;;;5080865;28;20045;-64
2021/03/16 12:35:10;;;;;;;7.97;1.00;;;;;;;;;;5080128;28;20064;-63
2021/03/16 12:38:14;;;;;;;6.25;1.35;;;;;;;;;;5079129;28;20040;-63
2021/03/16 12:41:18;;;;;;;6.13;0.95;;;;;;;;;;5080524;28;20048;-64
2021/03/16 12:44:23;;;;;;;6.18;1.23;;;;;;;;;;5077482;28;20410;-64
2021/03/16 12:47:28;;;;;;;7.65;0.90;;;;;;;;;;5082006;28;20049;-65
2021/03/16 12:50:32;;;;;;;5.45;1.33;;;;;;;;;;5079453;28;20515;-63
2021/03/16 12:53:36;;;;;;;4.80;1.23;;;;;;;;;;5079549;28;20044;-64
2021/03/16 12:56:40;;;;;;;9.20;0.88;;;;;;;;;;5079624;28;20040;-64
2021/03/16 12:59:45;;;;;;;6.45;0.80;;;;;;;;;;5073814;28;20045;-63
2021/03/16 13:02:50;;;;;;;4.57;1.30;;;;;;;;;;5071679;28;20041;-63
2021/03/16 13:05:54;;;;;;;5.72;0.80;;;;;;;;;;5071139;28;20040;-62
2021/03/16 13:08:58;;;;;;;4.72;0.77;;;;;;;;;;5070404;28;20056;-62
2021/03/16 13:12:02;;;;;;;4.70;0.85;;;;;;;;;;5071516;28;20509;-63
2021/03/16 13:15:09;;;;;;;5.65;1.80;;;;;;;;;;5070984;28;20044;-62
2021/03/16 13:18:13;;;;;;;7.05;1.23;;;;;;;;;;5071477;28;20041;-63
2021/03/16 13:21:18;;;;;;;7.80;1.35;;;;;;;;;;5051263;28;20053;-63
2021/03/16 13:24:22;;;;;;;5.53;1.52;;;;;;;;;;5051116;28;20052;-63
2021/03/16 13:27:26;;;;;;;7.70;1.17;;;;;;;;;;5051227;28;20566;-62
2021/03/16 13:30:31;;;;;;;4.10;0.77;;;;;;;;;;5066319;28;20053;-62
2021/03/16 13:33:35;;;;;;;8.80;0.95;;;;;;;;;;5074720;28;20041;-63
2021/03/16 13:36:39;;;;;;;4.05;0.70;;;;;;;;;;5074581;28;20045;-62
2021/03/16 13:39:43;;;;;;;2.25;0.52;;;;;;;;;;5073616;28;20131;-64
2021/03/16 13:42:48;;;;;;;3.20;0.60;;;;;;;;;;5072689;28;20044;-66
2021/03/16 13:45:52;;;;;;;6.53;1.00;;;;;;;;;;5061991;28;20040;-63
2021/03/16 13:48:56;;;;;;;7.90;1.17;;;;;;;;;;5057207;28;20071;-63
2021/03/16 13:52:01;;;;;;;8.95;1.42;;;;;;;;;;5054187;28;20049;-62
2021/03/16 13:55:05;;;;;;;7.78;0.70;;;;;;;;;;5074167;28;20048;-63
2021/03/16 13:58:09;;;;;;;3.92;0.68;;;;;;;;;;5072136;28;20048;-62
2021/03/16 14:01:13;;;;;;;2.85;0.70;;;;;;;;;;5071475;28;20119;-62
2021/03/16 14:04:18;;;;;;;5.35;0.85;;;;;;;;;;5073949;28;20068;-64
2021/03/16 14:07:22;;;;;;;5.18;0.73;;;;;;;;;;5067496;28;20399;-62
2021/03/16 14:10:26;;;;;;;10.30;1.55;;;;;;;;;;5058971;28;20053;-63
2021/03/16 14:13:30;;;;;;;5.75;1.02;;;;;;;;;;5075465;28;20044;-64
2021/03/16 14:16:35;;;;;;;4.53;0.70;;;;;;;;;;5073613;28;20041;-64
2021/03/16 14:19:39;;;;;;;3.50;0.80;;;;;;;;;;5068227;28;20127;-64
2021/03/16 14:22:48;;;;;;;3.40;0.80;;;;;;;;;;5068593;28;20411;-63
2021/03/16 14:25:52;;;;;;;4.55;1.20;;;;;;;;;;5067308;28;20037;-63
2021/03/16 14:28:57;;;;;;;5.70;1.17;;;;;;;;;;5084155;28;20041;-62
2021/03/16 14:32:01;;;;;;;6.03;0.93;;;;;;;;;;5068485;28;20090;-63
2021/03/16 14:35:05;;;;;;;7.93;0.80;;;;;;;;;;5069436;28;20133;-62
2021/03/16 14:38:10;;;;;;;7.28;1.10;;;;;;;;;;5074379;28;20120;-63
2021/03/16 14:41:14;;;;;;;6.90;1.20;;;;;;;;;;5066975;28;20403;-62
2021/03/16 14:44:18;;;;;;;4.60;0.77;;;;;;;;;;5072256;28;20041;-63
2021/03/16 14:47:22;;;;;;;7.25;1.15;;;;;;;;;;5072994;28;20123;-63
2021/03/16 14:50:27;;;;;;;7.95;1.80;;;;;;;;;;5072723;28;20518;-62
2021/03/16 14:53:31;;;;;;;4.82;1.00;;;;;;;;;;5067822;28;20045;-63
2021/03/16 14:56:35;;;;;;;2.95;0.73;;;;;;;;;;5071905;28;20500;-63
2021/03/16 14:59:39;;;;;;;6.45;1.00;;;;;;;;;;5063223;28;20415;-63
2021/03/16 15:02:44;;;;;;;7.22;1.83;;;;;;;;;;5065519;28;20044;-63
2021/03/16 15:05:48;;;;;;;8.07;1.73;;;;;;;;;;5070897;28;20040;-63
2021/03/16 15:08:52;;;;;;;5.78;0.85;;;;;;;;;;5072707;28;20090;-63
2021/03/16 15:11:57;;;;;;;10.00;1.42;;;;;;;;;;5062523;28;20052;-63
2021/03/16 15:15:01;;;;;;;6.07;0.90;;;;;;;;;;5068356;28;20052;-63
2021/03/16 15:18:05;;;;;;;12.10;2.03;;;;;;;;;;5060686;28;20044;-63
2021/03/16 15:21:10;;;;;;;7.47;0.90;;;;;;;;;;5059026;28;20422;-62
2021/03/16 15:24:14;;;;;;;5.32;0.90;;;;;;;;;;5070930;28;20044;-62
2021/03/16 15:27:19;;;;;;;5.30;0.95;;;;;;;;;;5072216;28;20044;-63
2021/03/16 15:30:23;;;;;;;9.45;1.30;;;;;;;;;;5072005;28;20051;-62
2021/03/16 15:33:27;;;;;;;8.18;0.95;;;;;;;;;;5071303;28;20044;-62
2021/03/16 15:36:31;;;;;;;6.85;1.83;;;;;;;;;;5063127;28;20048;-63
2021/03/16 15:39:36;;;;;;;4.47;0.93;;;;;;;;;;5056248;28;20036;-63
2021/03/16 15:42:40;;;;;;;12.60;2.13;;;;;;;;;;5070980;28;20052;-63
2021/03/16 15:45:44;;;;;;;9.05;2.33;;;;;;;;;;5069047;28;20045;-63
2021/03/16 15:48:48;;;;;;;8.05;1.75;;;;;;;;;;5066370;28;20052;-63
2021/03/16 15:51:53;;;;;;;5.47;1.00;;;;;;;;;;5058701;28;20525;-63
2021/03/16 15:54:57;;;;;;;12.07;2.67;;;;;;;;;;5070167;28;20115;-63
2021/03/16 15:58:02;;;;;;;8.45;1.65;;;;;;;;;;5071493;28;20090;-64
2021/03/16 16:01:06;;;;;;;7.53;1.35;;;;;;;;;;5075535;28;20044;-64
2021/03/16 16:04:10;;;;;;;10.48;1.65;;;;;;;;;;5076707;28;20036;-64
2021/03/16 16:07:14;;;;;;;7.22;1.42;;;;;;;;;;5075615;28;20036;-63
2021/03/16 16:10:19;;;;;;;8.43;1.50;;;;;;;;;;5068587;28;20040;-64
2021/03/16 16:13:23;;;;;;;8.57;1.60;;;;;;;;;;5073787;28;20052;-63
2021/03/16 16:16:27;;;;;;;11.85;2.47;;;;;;;;;;5071320;28;20494;-63
2021/03/16 16:19:32;;;;;;;6.82;1.30;;;;;;;;;;5070841;28;20406;-63
2021/03/16 16:22:36;;;;;;;11.35;1.80;;;;;;;;;;5071736;28;20049;-63
2021/03/16 16:25:41;;;;;;;11.05;1.70;;;;;;;;;;5071586;28;20511;-63
2021/03/16 16:28:46;;;;;;;10.00;1.98;;;;;;;;;;5070590;28;20044;-63
2021/03/16 16:31:50;;;;;;;10.10;1.90;;;;;;;;;;5071661;28;20135;-63
2021/03/16 16:34:54;;;;;;;11.27;2.53;;;;;;;;;;5071066;28;20520;-63
2021/03/16 16:37:58;;;;;;;4.88;1.08;;;;;;;;;;5069516;28;20132;-63
2021/03/16 16:41:03;;;;;;;7.82;1.20;;;;;;;;;;5062116;28;20435;-63
2021/03/16 16:44:07;;;;;;;5.30;1.15;;;;;;;;;;5071474;28;20068;-63
2021/03/16 16:47:11;;;;;;;6.75;1.40;;;;;;;;;;5071482;28;20044;-63
2021/03/16 16:50:16;;;;;;;6.28;1.45;;;;;;;;;;5069922;28;20128;-63
2021/03/16 16:53:20;;;;;;;6.82;1.58;;;;;;;;;;5071403;28;20048;-63
2021/03/16 16:56:25;;;;;;;6.45;1.30;;;;;;;;;;5071455;28;20049;-63
2021/03/16 16:59:29;;;;;;;6.22;1.58;;;;;;;;;;5070395;28;20458;-63
2021/03/16 17:02:33;;;;;;;8.07;1.40;;;;;;;;;;5071433;28;20045;-62
2021/03/16 17:05:37;;;;;;;7.68;1.67;;;;;;;;;;5072382;28;20070;-63
2021/03/16 17:08:41;;;;;;;4.40;0.90;;;;;;;;;;5074533;28;20040;-63
2021/03/16 17:11:46;;;;;;;3.17;1.10;;;;;;;;;;5071798;28;20053;-63
2021/03/16 17:14:50;;;;;;;4.82;0.90;;;;;;;;;;5073446;28;20078;-63
2021/03/16 17:17:54;;;;;;;4.03;0.60;;;;;;;;;;5070287;28;20041;-63
2021/03/16 17:20:58;;;;;;;3.65;0.77;;;;;;;;;;5073965;28;20048;-62
2021/03/16 17:24:03;;;;;;;4.00;0.63;;;;;;;;;;5074072;28;20047;-63
2021/03/16 17:27:07;;;;;;;5.78;1.10;;;;;;;;;;5074851;28;20045;-62
2021/03/16 17:30:15;;;;;;;2.38;0.70;;;;;;;;;;5074533;28;20045;-62
2021/03/16 17:33:19;;;;;;;2.25;0.82;;;;;;;;;;5074606;28;20507;-62
2021/03/16 17:36:24;;;;;;;2.25;0.60;;;;;;;;;;5072904;28;20079;-63
2021/03/16 17:39:28;;;;;;;1.98;0.80;;;;;;;;;;5070393;28;20529;-62
2021/03/16 17:42:33;;;;;;;2.58;0.57;;;;;;;;;;5067674;28;20045;-63
2021/03/16 17:45:37;;;;;;;2.47;0.60;;;;;;;;;;5069230;28;20040;-62
2021/03/16 17:48:41;;;;;;;3.83;0.88;;;;;;;;;;5074368;28;20041;-62
2021/03/16 17:51:45;;;;;;;4.65;1.98;;;;;;;;;;5070638;28;20049;-62
2021/03/16 17:54:50;;;;;;;4.38;0.80;;;;;;;;;;5073957;28;20501;-63